Wednesday, June 20, 2018, 10:49 AM EDT
Back to Local

KRKD, Rockland, Knox County Regional Airport

Location: Owls Head, ME, United States Lat: 44.067
Local Time: 10:49 AM EDT (14:49 GMT) Lon: -69.1
Time Zone: US/Eastern Elev: 55 ft

Show me the last for .
Show Decoded

2018-06-20 09:56 METAR KRKD 201356Z AUTO 26008KT 10SM CLR 23/09 A2984 RMK AO2 SLP105 T02330089 =
2018-06-20 08:56 METAR KRKD 201256Z AUTO 27009KT 10SM CLR 21/11 A2985 RMK AO2 SLP108 T02110106 =
2018-06-20 07:56 METAR KRKD 201156Z AUTO 28007KT 10SM CLR 19/11 A2986 RMK AO2 SLP113 T01890106
                 10189 20089 53007 =
2018-06-20 06:56 METAR KRKD 201056Z AUTO 28005KT 10SM CLR 16/10 A2985 RMK AO2 SLP109 T01560100 =
2018-06-20 05:56 METAR KRKD 200956Z AUTO 28005KT 10SM CLR 12/08 A2984 RMK AO2 SLP107 T01170078 =
2018-06-20 04:56 METAR KRKD 200856Z AUTO 00000KT 10SM CLR 09/07 A2984 RMK AO2 SLP106 T00940072
                 55002 =
2018-06-20 03:56 METAR KRKD 200756Z AUTO 28005KT 10SM CLR 12/08 A2984 RMK AO2 SLP105 T01220078 =
2018-06-20 02:56 METAR KRKD 200656Z AUTO 28003KT 10SM CLR 13/08 A2984 RMK AO2 SLP107 T01280078 =
2018-06-20 01:56 METAR KRKD 200556Z AUTO 29006KT 10SM CLR 13/08 A2985 RMK AO2 SLP108 T01330083
                 10217 20122 51005 =
2018-06-20 00:56 METAR KRKD 200456Z AUTO 28004KT 10SM CLR 14/08 A2984 RMK AO2 SLP107 T01390083
                 402440122 =
2018-06-19 23:56 METAR KRKD 200356Z AUTO 28006KT 10SM CLR 14/09 A2984 RMK AO2 SLP107 T01390089 =
2018-06-19 22:56 METAR KRKD 200256Z AUTO 30003KT 10SM CLR 16/09 A2983 RMK AO2 SLP103 T01560094
                 51020 =
2018-06-19 21:56 METAR KRKD 200156Z AUTO 30004KT 10SM CLR 18/10 A2982 RMK AO2 SLP099 T01830100 =
2018-06-19 20:56 METAR KRKD 200056Z AUTO 00000KT 10SM CLR 18/10 A2980 RMK AO2 SLP091 T01780100 =
2018-06-19 19:56 METAR KRKD 192356Z AUTO 31004KT 10SM CLR 22/09 A2977 RMK AO2 SLP083 T02170094
                 10244 20217 53023 =
2018-06-19 18:56 METAR KRKD 192256Z AUTO 30008G14KT 10SM CLR 23/09 A2974 RMK AO2 SLP073 T02280094
                 =
2018-06-19 17:56 METAR KRKD 192156Z AUTO 31007KT 10SM CLR 24/10 A2972 RMK AO2 SLP065 T02390100 =
2018-06-19 16:56 METAR KRKD 192056Z AUTO 31008G18KT 280V340 10SM CLR 24/08 A2970 RMK AO2 SLP060
                 T02390083 53007 =
2018-06-19 15:56 METAR KRKD 191956Z AUTO 33008G17KT 280V010 10SM CLR 24/09 A2970 RMK AO2 SLP058
                 T02390094 =
2018-06-19 14:56 METAR KRKD 191856Z AUTO 30009KT 10SM CLR 23/10 A2969 RMK AO2 SLP054 T02330100 =
2018-06-19 13:56 METAR KRKD 191756Z AUTO 30013G19KT 280V340 10SM CLR 23/10 A2968 RMK AO2 SLP053
                 T02330100 10233 20206 50002 =
2018-06-19 12:56 METAR KRKD 191656Z AUTO 31007G21KT 10SM CLR 22/12 A2969 RMK AO2 SLP053 T02220117
                 =
2018-06-19 11:56 METAR KRKD 191556Z AUTO 32009G17KT 300V360 10SM CLR 22/11 A2969 RMK AO2 SLP054
                 T02170111 =
2018-06-19 10:56 METAR KRKD 191456Z AUTO 32009G17KT 290V360 10SM FEW047 22/12 A2968 RMK AO2
                 SLP051 T02220122 53008 =

Support USWX by starting your Amazon purchase here.